sensor_id;sensor_type;location;lat;lon;timestamp;P1;durP1;ratioP1;P2;durP2;ratioP2
18228;SDS011;9239;50.932;3.142;2024-03-23T00:54:12;21.60;;;14.23;;
18228;SDS011;9239;50.932;3.142;2024-03-23T00:56:39;22.67;;;14.43;;
18228;SDS011;9239;50.932;3.142;2024-03-23T00:59:05;20.90;;;14.37;;
18228;SDS011;9239;50.932;3.142;2024-03-23T01:01:32;18.63;;;13.40;;
18228;SDS011;9239;50.932;3.142;2024-03-23T01:03:58;23.07;;;13.90;;
18228;SDS011;9239;50.932;3.142;2024-03-23T01:06:25;21.60;;;13.93;;
18228;SDS011;9239;50.932;3.142;2024-03-23T01:08:52;20.93;;;13.37;;
18228;SDS011;9239;50.932;3.142;2024-03-23T01:11:20;21.20;;;13.77;;
18228;SDS011;9239;50.932;3.142;2024-03-23T01:13:46;24.93;;;14.13;;
18228;SDS011;9239;50.932;3.142;2024-03-23T01:16:13;14.83;;;12.43;;
18228;SDS011;9239;50.932;3.142;2024-03-23T01:18:39;21.17;;;13.10;;
18228;SDS011;9239;50.932;3.142;2024-03-23T01:21:06;18.50;;;12.40;;
18228;SDS011;9239;50.932;3.142;2024-03-23T01:23:32;19.17;;;12.20;;
18228;SDS011;9239;50.932;3.142;2024-03-23T01:25:59;14.50;;;10.97;;
18228;SDS011;9239;50.932;3.142;2024-03-23T01:28:26;14.37;;;12.27;;
18228;SDS011;9239;50.932;3.142;2024-03-23T01:30:53;13.07;;;11.67;;
18228;SDS011;9239;50.932;3.142;2024-03-23T01:33:19;15.27;;;11.53;;
18228;SDS011;9239;50.932;3.142;2024-03-23T01:35:46;18.37;;;12.00;;
18228;SDS011;9239;50.932;3.142;2024-03-23T01:38:13;15.80;;;10.00;;
18228;SDS011;9239;50.932;3.142;2024-03-23T01:40:40;16.53;;;11.77;;
18228;SDS011;9239;50.932;3.142;2024-03-23T01:43:06;15.20;;;10.07;;
18228;SDS011;9239;50.932;3.142;2024-03-23T01:45:35;17.60;;;10.77;;
18228;SDS011;9239;50.932;3.142;2024-03-23T01:48:02;11.93;;;9.60;;
18228;SDS011;9239;50.932;3.142;2024-03-23T01:50:30;13.00;;;9.50;;
18228;SDS011;9239;50.932;3.142;2024-03-23T01:52:59;18.77;;;9.47;;
18228;SDS011;9239;50.932;3.142;2024-03-23T01:55:30;15.13;;;8.57;;
18228;SDS011;9239;50.932;3.142;2024-03-23T01:57:57;12.63;;;9.30;;
18228;SDS011;9239;50.932;3.142;2024-03-23T02:00:24;16.40;;;10.10;;
18228;SDS011;9239;50.932;3.142;2024-03-23T02:02:53;13.70;;;8.10;;
18228;SDS011;9239;50.932;3.142;2024-03-23T02:05:21;15.93;;;8.60;;
18228;SDS011;9239;50.932;3.142;2024-03-23T02:07:47;11.97;;;7.33;;
18228;SDS011;9239;50.932;3.142;2024-03-23T02:10:15;9.17;;;7.03;;
18228;SDS011;9239;50.932;3.142;2024-03-23T02:12:41;10.23;;;5.63;;
18228;SDS011;9239;50.932;3.142;2024-03-23T02:15:08;6.60;;;5.67;;
18228;SDS011;9239;50.932;3.142;2024-03-23T02:17:34;12.27;;;5.77;;
18228;SDS011;9239;50.932;3.142;2024-03-23T02:20:04;9.13;;;4.93;;
18228;SDS011;9239;50.932;3.142;2024-03-23T02:22:35;10.40;;;4.93;;
18228;SDS011;9239;50.932;3.142;2024-03-23T02:25:04;9.10;;;5.17;;
18228;SDS011;9239;50.932;3.142;2024-03-23T02:27:31;10.33;;;4.20;;
18228;SDS011;9239;50.932;3.142;2024-03-23T02:29:58;8.67;;;4.43;;
18228;SDS011;9239;50.932;3.142;2024-03-23T02:32:24;7.37;;;4.13;;
18228;SDS011;9239;50.932;3.142;2024-03-23T02:34:51;7.10;;;4.50;;
18228;SDS011;9239;50.932;3.142;2024-03-23T02:37:17;10.63;;;4.00;;
18228;SDS011;9239;50.932;3.142;2024-03-23T02:39:44;12.80;;;4.30;;
18228;SDS011;9239;50.932;3.142;2024-03-23T02:42:12;9.87;;;5.37;;
18228;SDS011;9239;50.932;3.142;2024-03-23T02:44:38;9.50;;;5.00;;
18228;SDS011;9239;50.932;3.142;2024-03-23T02:47:05;8.27;;;4.23;;
18228;SDS011;9239;50.932;3.142;2024-03-23T02:49:33;11.13;;;3.90;;
18228;SDS011;9239;50.932;3.142;2024-03-23T02:51:58;9.63;;;3.83;;
18228;SDS011;9239;50.932;3.142;2024-03-23T02:54:25;10.23;;;3.80;;
18228;SDS011;9239;50.932;3.142;2024-03-23T02:56:51;3.80;;;2.90;;
18228;SDS011;9239;50.932;3.142;2024-03-23T02:59:20;6.83;;;3.23;;
18228;SDS011;9239;50.932;3.142;2024-03-23T03:01:46;10.40;;;3.70;;
18228;SDS011;9239;50.932;3.142;2024-03-23T03:04:13;6.43;;;3.87;;
18228;SDS011;9239;50.932;3.142;2024-03-23T03:06:39;9.47;;;3.47;;
18228;SDS011;9239;50.932;3.142;2024-03-23T03:09:06;8.37;;;3.27;;
18228;SDS011;9239;50.932;3.142;2024-03-23T03:11:33;5.97;;;2.90;;
18228;SDS011;9239;50.932;3.142;2024-03-23T03:14:00;5.57;;;2.80;;
18228;SDS011;9239;50.932;3.142;2024-03-23T03:16:27;9.67;;;3.67;;
18228;SDS011;9239;50.932;3.142;2024-03-23T03:18:55;7.00;;;3.20;;
18228;SDS011;9239;50.932;3.142;2024-03-23T03:21:21;6.83;;;2.97;;
18228;SDS011;9239;50.932;3.142;2024-03-23T03:23:48;11.90;;;3.07;;
18228;SDS011;9239;50.932;3.142;2024-03-23T03:26:15;7.13;;;3.10;;
18228;SDS011;9239;50.932;3.142;2024-03-23T03:28:42;6.93;;;2.90;;
18228;SDS011;9239;50.932;3.142;2024-03-23T03:31:08;7.33;;;2.97;;
18228;SDS011;9239;50.932;3.142;2024-03-23T03:33:37;7.23;;;2.73;;
18228;SDS011;9239;50.932;3.142;2024-03-23T03:36:03;5.73;;;3.00;;
18228;SDS011;9239;50.932;3.142;2024-03-23T03:38:30;5.53;;;2.60;;
18228;SDS011;9239;50.932;3.142;2024-03-23T03:40:56;8.83;;;3.03;;
18228;SDS011;9239;50.932;3.142;2024-03-23T03:43:24;10.60;;;2.67;;
18228;SDS011;9239;50.932;3.142;2024-03-23T03:45:53;6.10;;;2.87;;
18228;SDS011;9239;50.932;3.142;2024-03-23T03:48:20;9.33;;;2.73;;
18228;SDS011;9239;50.932;3.142;2024-03-23T03:50:47;8.37;;;3.00;;
18228;SDS011;9239;50.932;3.142;2024-03-23T03:53:15;14.87;;;3.97;;
18228;SDS011;9239;50.932;3.142;2024-03-23T03:55:41;10.67;;;3.50;;
18228;SDS011;9239;50.932;3.142;2024-03-23T03:58:08;11.60;;;3.50;;
18228;SDS011;9239;50.932;3.142;2024-03-23T04:00:34;10.17;;;3.03;;
18228;SDS011;9239;50.932;3.142;2024-03-23T04:03:01;6.43;;;3.10;;
18228;SDS011;9239;50.932;3.142;2024-03-23T04:05:27;8.27;;;3.63;;
18228;SDS011;9239;50.932;3.142;2024-03-23T04:07:55;6.33;;;3.13;;
18228;SDS011;9239;50.932;3.142;2024-03-23T04:10:21;9.77;;;3.33;;
18228;SDS011;9239;50.932;3.142;2024-03-23T04:12:48;7.47;;;3.00;;
18228;SDS011;9239;50.932;3.142;2024-03-23T04:15:15;7.20;;;3.50;;
18228;SDS011;9239;50.932;3.142;2024-03-23T04:17:42;10.03;;;3.60;;
18228;SDS011;9239;50.932;3.142;2024-03-23T04:20:08;8.60;;;3.03;;
18228;SDS011;9239;50.932;3.142;2024-03-23T04:22:39;7.80;;;3.73;;
18228;SDS011;9239;50.932;3.142;2024-03-23T04:25:06;10.60;;;3.00;;
18228;SDS011;9239;50.932;3.142;2024-03-23T04:27:35;8.60;;;3.30;;
18228;SDS011;9239;50.932;3.142;2024-03-23T04:30:02;8.77;;;3.40;;
18228;SDS011;9239;50.932;3.142;2024-03-23T04:32:35;21.07;;;4.93;;
18228;SDS011;9239;50.932;3.142;2024-03-23T04:35:01;10.30;;;4.33;;
18228;SDS011;9239;50.932;3.142;2024-03-23T04:37:30;11.03;;;4.13;;
18228;SDS011;9239;50.932;3.142;2024-03-23T04:39:58;10.90;;;3.20;;
18228;SDS011;9239;50.932;3.142;2024-03-23T04:42:27;10.13;;;3.33;;
18228;SDS011;9239;50.932;3.142;2024-03-23T04:44:54;5.83;;;3.13;;
18228;SDS011;9239;50.932;3.142;2024-03-23T04:47:21;10.10;;;3.60;;
18228;SDS011;9239;50.932;3.142;2024-03-23T04:49:48;8.73;;;3.70;;
18228;SDS011;9239;50.932;3.142;2024-03-23T04:52:15;5.80;;;2.63;;
18228;SDS011;9239;50.932;3.142;2024-03-23T04:54:42;8.37;;;3.00;;
18228;SDS011;9239;50.932;3.142;2024-03-23T04:57:10;9.87;;;3.17;;
18228;SDS011;9239;50.932;3.142;2024-03-23T04:59:39;8.13;;;2.87;;
18228;SDS011;9239;50.932;3.142;2024-03-23T05:02:05;8.10;;;4.50;;
18228;SDS011;9239;50.932;3.142;2024-03-23T05:04:32;8.60;;;2.83;;
18228;SDS011;9239;50.932;3.142;2024-03-23T05:06:58;8.40;;;2.40;;
18228;SDS011;9239;50.932;3.142;2024-03-23T05:09:25;8.37;;;2.70;;
18228;SDS011;9239;50.932;3.142;2024-03-23T05:11:55;6.57;;;2.87;;
18228;SDS011;9239;50.932;3.142;2024-03-23T05:14:22;10.77;;;3.03;;
18228;SDS011;9239;50.932;3.142;2024-03-23T05:16:49;5.87;;;2.63;;
18228;SDS011;9239;50.932;3.142;2024-03-23T05:19:16;8.07;;;2.67;;
18228;SDS011;9239;50.932;3.142;2024-03-23T05:21:42;8.37;;;3.57;;
18228;SDS011;9239;50.932;3.142;2024-03-23T05:24:09;9.97;;;2.80;;
18228;SDS011;9239;50.932;3.142;2024-03-23T05:26:37;8.10;;;2.50;;
18228;SDS011;9239;50.932;3.142;2024-03-23T05:29:04;11.87;;;2.80;;
18228;SDS011;9239;50.932;3.142;2024-03-23T05:31:32;16.37;;;4.70;;
18228;SDS011;9239;50.932;3.142;2024-03-23T05:34:00;10.27;;;3.40;;
18228;SDS011;9239;50.932;3.142;2024-03-23T05:36:26;11.37;;;5.80;;
18228;SDS011;9239;50.932;3.142;2024-03-23T05:38:53;7.90;;;5.30;;
18228;SDS011;9239;50.932;3.142;2024-03-23T05:41:19;11.33;;;3.27;;
18228;SDS011;9239;50.932;3.142;2024-03-23T05:43:47;7.03;;;3.30;;
18228;SDS011;9239;50.932;3.142;2024-03-23T05:46:13;8.57;;;2.87;;
18228;SDS011;9239;50.932;3.142;2024-03-23T05:48:40;14.77;;;4.87;;
18228;SDS011;9239;50.932;3.142;2024-03-23T05:51:07;11.00;;;3.00;;
18228;SDS011;9239;50.932;3.142;2024-03-23T05:53:34;8.30;;;3.00;;
18228;SDS011;9239;50.932;3.142;2024-03-23T05:56:01;11.83;;;3.50;;
18228;SDS011;9239;50.932;3.142;2024-03-23T05:58:30;7.80;;;3.20;;
18228;SDS011;9239;50.932;3.142;2024-03-23T06:00:59;10.60;;;3.40;;
18228;SDS011;9239;50.932;3.142;2024-03-23T06:03:27;8.50;;;4.03;;
18228;SDS011;9239;50.932;3.142;2024-03-23T06:05:54;11.57;;;3.40;;
18228;SDS011;9239;50.932;3.142;2024-03-23T06:08:22;6.93;;;2.93;;
18228;SDS011;9239;50.932;3.142;2024-03-23T06:10:49;9.80;;;3.70;;
18228;SDS011;9239;50.932;3.142;2024-03-23T06:13:16;9.60;;;3.70;;
18228;SDS011;9239;50.932;3.142;2024-03-23T06:15:42;8.73;;;3.00;;
18228;SDS011;9239;50.932;3.142;2024-03-23T06:18:11;9.90;;;3.33;;
18228;SDS011;9239;50.932;3.142;2024-03-23T06:20:37;6.80;;;2.63;;
18228;SDS011;9239;50.932;3.142;2024-03-23T06:23:04;11.73;;;3.27;;
18228;SDS011;9239;50.932;3.142;2024-03-23T06:25:32;10.17;;;2.87;;
18228;SDS011;9239;50.932;3.142;2024-03-23T06:27:59;9.73;;;2.93;;
18228;SDS011;9239;50.932;3.142;2024-03-23T06:30:26;8.77;;;2.60;;
18228;SDS011;9239;50.932;3.142;2024-03-23T06:32:54;6.20;;;3.00;;
18228;SDS011;9239;50.932;3.142;2024-03-23T06:35:20;10.40;;;2.80;;
18228;SDS011;9239;50.932;3.142;2024-03-23T06:37:47;5.27;;;2.97;;
18228;SDS011;9239;50.932;3.142;2024-03-23T06:40:13;8.00;;;2.53;;
18228;SDS011;9239;50.932;3.142;2024-03-23T06:42:41;11.47;;;2.53;;
18228;SDS011;9239;50.932;3.142;2024-03-23T06:45:08;7.63;;;2.70;;
18228;SDS011;9239;50.932;3.142;2024-03-23T06:47:35;9.23;;;2.43;;
18228;SDS011;9239;50.932;3.142;2024-03-23T06:50:02;4.37;;;2.60;;
18228;SDS011;9239;50.932;3.142;2024-03-23T06:52:30;6.23;;;3.07;;
18228;SDS011;9239;50.932;3.142;2024-03-23T06:54:56;6.47;;;2.77;;
18228;SDS011;9239;50.932;3.142;2024-03-23T06:57:24;5.67;;;2.80;;
18228;SDS011;9239;50.932;3.142;2024-03-23T06:59:51;5.47;;;2.20;;
18228;SDS011;9239;50.932;3.142;2024-03-23T07:02:18;8.57;;;2.80;;
18228;SDS011;9239;50.932;3.142;2024-03-23T07:04:44;9.07;;;2.80;;
18228;SDS011;9239;50.932;3.142;2024-03-23T07:07:11;5.40;;;2.00;;
18228;SDS011;9239;50.932;3.142;2024-03-23T07:09:37;6.60;;;2.27;;
18228;SDS011;9239;50.932;3.142;2024-03-23T07:12:05;8.00;;;2.43;;
18228;SDS011;9239;50.932;3.142;2024-03-23T07:14:31;5.07;;;2.57;;
18228;SDS011;9239;50.932;3.142;2024-03-23T07:16:59;5.00;;;2.63;;
18228;SDS011;9239;50.932;3.142;2024-03-23T07:19:25;4.97;;;1.90;;
18228;SDS011;9239;50.932;3.142;2024-03-23T07:21:53;7.67;;;2.60;;
18228;SDS011;9239;50.932;3.142;2024-03-23T07:24:19;9.27;;;2.93;;
18228;SDS011;9239;50.932;3.142;2024-03-23T07:26:46;7.70;;;3.00;;
18228;SDS011;9239;50.932;3.142;2024-03-23T07:29:13;5.20;;;2.30;;
18228;SDS011;9239;50.932;3.142;2024-03-23T07:31:40;7.07;;;2.50;;
18228;SDS011;9239;50.932;3.142;2024-03-23T07:34:08;7.27;;;3.17;;
18228;SDS011;9239;50.932;3.142;2024-03-23T07:36:35;5.30;;;2.00;;
18228;SDS011;9239;50.932;3.142;2024-03-23T07:39:00;6.43;;;1.87;;
18228;SDS011;9239;50.932;3.142;2024-03-23T07:41:29;9.87;;;2.43;;
18228;SDS011;9239;50.932;3.142;2024-03-23T07:43:55;8.20;;;2.50;;
18228;SDS011;9239;50.932;3.142;2024-03-23T07:46:23;5.80;;;2.03;;
18228;SDS011;9239;50.932;3.142;2024-03-23T07:48:50;8.87;;;2.37;;
18228;SDS011;9239;50.932;3.142;2024-03-23T07:51:19;6.43;;;2.17;;
18228;SDS011;9239;50.932;3.142;2024-03-23T07:53:46;7.93;;;2.10;;
18228;SDS011;9239;50.932;3.142;2024-03-23T07:56:14;4.43;;;2.23;;
18228;SDS011;9239;50.932;3.142;2024-03-23T07:58:41;6.93;;;2.40;;
18228;SDS011;9239;50.932;3.142;2024-03-23T08:01:08;6.83;;;1.87;;
18228;SDS011;9239;50.932;3.142;2024-03-23T08:03:35;6.97;;;2.20;;
18228;SDS011;9239;50.932;3.142;2024-03-23T08:06:06;6.10;;;2.00;;
18228;SDS011;9239;50.932;3.142;2024-03-23T08:08:34;5.00;;;1.83;;
18228;SDS011;9239;50.932;3.142;2024-03-23T08:11:02;5.03;;;2.37;;
18228;SDS011;9239;50.932;3.142;2024-03-23T08:13:28;7.40;;;2.20;;
18228;SDS011;9239;50.932;3.142;2024-03-23T08:15:56;7.07;;;2.30;;
18228;SDS011;9239;50.932;3.142;2024-03-23T08:18:22;7.17;;;2.43;;
18228;SDS011;9239;50.932;3.142;2024-03-23T08:20:55;6.93;;;2.03;;
18228;SDS011;9239;50.932;3.142;2024-03-23T08:23:22;5.13;;;2.07;;
18228;SDS011;9239;50.932;3.142;2024-03-23T08:25:50;6.07;;;2.10;;
18228;SDS011;9239;50.932;3.142;2024-03-23T08:28:16;7.67;;;2.27;;
18228;SDS011;9239;50.932;3.142;2024-03-23T08:30:43;7.20;;;3.30;;
18228;SDS011;9239;50.932;3.142;2024-03-23T08:33:09;5.33;;;2.30;;
18228;SDS011;9239;50.932;3.142;2024-03-23T08:35:36;7.80;;;2.60;;
18228;SDS011;9239;50.932;3.142;2024-03-23T08:38:03;5.93;;;2.40;;
18228;SDS011;9239;50.932;3.142;2024-03-23T08:40:30;7.93;;;2.30;;
18228;SDS011;9239;50.932;3.142;2024-03-23T08:42:58;5.03;;;2.43;;
18228;SDS011;9239;50.932;3.142;2024-03-23T08:45:25;6.27;;;3.03;;
18228;SDS011;9239;50.932;3.142;2024-03-23T08:47:51;5.03;;;2.27;;
18228;SDS011;9239;50.932;3.142;2024-03-23T08:50:18;10.13;;;2.17;;
18228;SDS011;9239;50.932;3.142;2024-03-23T08:52:44;4.23;;;2.03;;
18228;SDS011;9239;50.932;3.142;2024-03-23T08:55:11;5.80;;;1.80;;
18228;SDS011;9239;50.932;3.142;2024-03-23T08:57:37;3.83;;;1.80;;
18228;SDS011;9239;50.932;3.142;2024-03-23T09:00:06;4.50;;;1.90;;
18228;SDS011;9239;50.932;3.142;2024-03-23T09:02:34;7.53;;;2.20;;
18228;SDS011;9239;50.932;3.142;2024-03-23T09:05:01;6.23;;;2.73;;
18228;SDS011;9239;50.932;3.142;2024-03-23T09:07:29;9.37;;;2.60;;
18228;SDS011;9239;50.932;3.142;2024-03-23T09:09:57;6.53;;;2.90;;
18228;SDS011;9239;50.932;3.142;2024-03-23T09:12:23;5.07;;;2.50;;
18228;SDS011;9239;50.932;3.142;2024-03-23T09:14:50;7.60;;;3.87;;
18228;SDS011;9239;50.932;3.142;2024-03-23T09:17:18;5.90;;;3.07;;
18228;SDS011;9239;50.932;3.142;2024-03-23T09:19:45;7.60;;;3.53;;
18228;SDS011;9239;50.932;3.142;2024-03-23T09:22:12;6.80;;;3.13;;
18228;SDS011;9239;50.932;3.142;2024-03-23T09:24:39;9.50;;;4.07;;
18228;SDS011;9239;50.932;3.142;2024-03-23T09:27:06;10.27;;;3.90;;
18228;SDS011;9239;50.932;3.142;2024-03-23T09:29:31;6.53;;;2.97;;
18228;SDS011;9239;50.932;3.142;2024-03-23T09:31:58;6.43;;;3.60;;
18228;SDS011;9239;50.932;3.142;2024-03-23T09:34:26;5.30;;;2.53;;
18228;SDS011;9239;50.932;3.142;2024-03-23T09:36:53;4.37;;;2.87;;
18228;SDS011;9239;50.932;3.142;2024-03-23T09:39:19;5.27;;;2.13;;
18228;SDS011;9239;50.932;3.142;2024-03-23T09:41:46;6.17;;;3.10;;
18228;SDS011;9239;50.932;3.142;2024-03-23T09:44:12;5.50;;;2.87;;
18228;SDS011;9239;50.932;3.142;2024-03-23T09:46:39;3.97;;;2.27;;
18228;SDS011;9239;50.932;3.142;2024-03-23T09:49:05;6.17;;;1.77;;
18228;SDS011;9239;50.932;3.142;2024-03-23T09:51:36;6.97;;;2.10;;
18228;SDS011;9239;50.932;3.142;2024-03-23T09:54:02;8.10;;;2.20;;
18228;SDS011;9239;50.932;3.142;2024-03-23T09:56:29;4.33;;;1.90;;
18228;SDS011;9239;50.932;3.142;2024-03-23T09:59:05;7.03;;;2.83;;
18228;SDS011;9239;50.932;3.142;2024-03-23T10:01:32;2.67;;;1.80;;
18228;SDS011;9239;50.932;3.142;2024-03-23T10:03:59;5.00;;;2.03;;
18228;SDS011;9239;50.932;3.142;2024-03-23T10:06:26;5.50;;;2.00;;
18228;SDS011;9239;50.932;3.142;2024-03-23T10:08:53;7.87;;;3.40;;
18228;SDS011;9239;50.932;3.142;2024-03-23T10:11:20;4.83;;;1.67;;
18228;SDS011;9239;50.932;3.142;2024-03-23T10:13:46;4.97;;;1.80;;
18228;SDS011;9239;50.932;3.142;2024-03-23T10:16:20;3.70;;;1.77;;
18228;SDS011;9239;50.932;3.142;2024-03-23T10:18:47;3.20;;;1.73;;
18228;SDS011;9239;50.932;3.142;2024-03-23T10:21:15;6.10;;;2.10;;
18228;SDS011;9239;50.932;3.142;2024-03-23T10:23:42;3.83;;;1.37;;
18228;SDS011;9239;50.932;3.142;2024-03-23T10:26:15;5.77;;;1.47;;
18228;SDS011;9239;50.932;3.142;2024-03-23T10:28:52;3.53;;;1.67;;
18228;SDS011;9239;50.932;3.142;2024-03-23T10:31:22;6.27;;;2.90;;
18228;SDS011;9239;50.932;3.142;2024-03-23T10:33:48;3.00;;;1.33;;
18228;SDS011;9239;50.932;3.142;2024-03-23T10:36:15;3.37;;;1.80;;
18228;SDS011;9239;50.932;3.142;2024-03-23T10:38:43;7.50;;;1.90;;
18228;SDS011;9239;50.932;3.142;2024-03-23T10:41:11;4.63;;;1.40;;
18228;SDS011;9239;50.932;3.142;2024-03-23T10:43:38;7.13;;;2.93;;
18228;SDS011;9239;50.932;3.142;2024-03-23T10:46:05;9.93;;;4.50;;
18228;SDS011;9239;50.932;3.142;2024-03-23T10:48:32;5.63;;;2.23;;
18228;SDS011;9239;50.932;3.142;2024-03-23T10:50:59;7.50;;;2.53;;
18228;SDS011;9239;50.932;3.142;2024-03-23T10:53:25;6.87;;;2.70;;
18228;SDS011;9239;50.932;3.142;2024-03-23T10:55:54;6.77;;;2.57;;
18228;SDS011;9239;50.932;3.142;2024-03-23T10:58:21;6.53;;;2.87;;
18228;SDS011;9239;50.932;3.142;2024-03-23T11:00:54;6.67;;;2.80;;
18228;SDS011;9239;50.932;3.142;2024-03-23T11:03:29;2.83;;;1.80;;
18228;SDS011;9239;50.932;3.142;2024-03-23T11:05:57;4.83;;;1.70;;
18228;SDS011;9239;50.932;3.142;2024-03-23T11:08:30;7.77;;;2.70;;
18228;SDS011;9239;50.932;3.142;2024-03-23T11:11:13;6.10;;;2.10;;
18228;SDS011;9239;50.932;3.142;2024-03-23T11:13:42;4.90;;;1.90;;
18228;SDS011;9239;50.932;3.142;2024-03-23T11:16:17;4.97;;;1.90;;
18228;SDS011;9239;50.932;3.142;2024-03-23T11:18:48;9.47;;;2.03;;
18228;SDS011;9239;50.932;3.142;2024-03-23T11:24:20;3.60;;;1.40;;
18228;SDS011;9239;50.932;3.142;2024-03-23T11:26:47;2.97;;;1.67;;
18228;SDS011;9239;50.932;3.142;2024-03-23T11:29:14;3.97;;;1.63;;
18228;SDS011;9239;50.932;3.142;2024-03-23T11:31:48;4.27;;;1.40;;
18228;SDS011;9239;50.932;3.142;2024-03-23T11:34:15;7.47;;;2.00;;
18228;SDS011;9239;50.932;3.142;2024-03-23T11:36:42;7.53;;;2.67;;
18228;SDS011;9239;50.932;3.142;2024-03-23T11:39:12;5.87;;;3.10;;
18228;SDS011;9239;50.932;3.142;2024-03-23T11:41:47;5.33;;;1.87;;
18228;SDS011;9239;50.932;3.142;2024-03-23T11:44:14;3.33;;;0.70;;
18228;SDS011;9239;50.932;3.142;2024-03-23T11:46:42;3.60;;;1.00;;
18228;SDS011;9239;50.932;3.142;2024-03-23T11:49:20;5.77;;;1.70;;
18228;SDS011;9239;50.932;3.142;2024-03-23T11:51:48;3.00;;;1.60;;
18228;SDS011;9239;50.932;3.142;2024-03-23T11:54:15;5.83;;;1.70;;
18228;SDS011;9239;50.932;3.142;2024-03-23T11:56:53;5.13;;;2.53;;
18228;SDS011;9239;50.932;3.142;2024-03-23T11:59:29;6.83;;;1.70;;
18228;SDS011;9239;50.932;3.142;2024-03-23T12:01:57;4.20;;;1.90;;
18228;SDS011;9239;50.932;3.142;2024-03-23T12:04:28;3.07;;;1.40;;
18228;SDS011;9239;50.932;3.142;2024-03-23T12:07:09;5.17;;;1.50;;
18228;SDS011;9239;50.932;3.142;2024-03-23T12:09:37;5.07;;;1.40;;
18228;SDS011;9239;50.932;3.142;2024-03-23T12:12:08;4.43;;;1.30;;
18228;SDS011;9239;50.932;3.142;2024-03-23T12:14:35;4.10;;;1.47;;
18228;SDS011;9239;50.932;3.142;2024-03-23T12:17:11;5.60;;;1.73;;
18228;SDS011;9239;50.932;3.142;2024-03-23T12:19:40;3.97;;;1.50;;
18228;SDS011;9239;50.932;3.142;2024-03-23T12:22:10;5.10;;;1.57;;
18228;SDS011;9239;50.932;3.142;2024-03-23T12:24:36;6.80;;;3.40;;
18228;SDS011;9239;50.932;3.142;2024-03-23T12:27:04;4.33;;;2.37;;
18228;SDS011;9239;50.932;3.142;2024-03-23T12:29:30;4.23;;;2.10;;
18228;SDS011;9239;50.932;3.142;2024-03-23T12:31:59;4.40;;;1.60;;
18228;SDS011;9239;50.932;3.142;2024-03-23T12:34:25;5.03;;;1.90;;
18228;SDS011;9239;50.932;3.142;2024-03-23T12:36:53;4.50;;;1.30;;
18228;SDS011;9239;50.932;3.142;2024-03-23T12:39:19;3.77;;;1.30;;
18228;SDS011;9239;50.932;3.142;2024-03-23T12:41:46;6.53;;;1.80;;
18228;SDS011;9239;50.932;3.142;2024-03-23T12:44:13;3.23;;;1.10;;
18228;SDS011;9239;50.932;3.142;2024-03-23T12:46:40;3.07;;;1.23;;
18228;SDS011;9239;50.932;3.142;2024-03-23T12:49:06;5.17;;;1.67;;
18228;SDS011;9239;50.932;3.142;2024-03-23T12:51:33;3.60;;;1.27;;
18228;SDS011;9239;50.932;3.142;2024-03-23T12:54:00;4.70;;;1.20;;
18228;SDS011;9239;50.932;3.142;2024-03-23T12:56:27;5.87;;;1.40;;
18228;SDS011;9239;50.932;3.142;2024-03-23T12:58:53;2.77;;;1.30;;
18228;SDS011;9239;50.932;3.142;2024-03-23T13:01:22;4.73;;;2.23;;
18228;SDS011;9239;50.932;3.142;2024-03-23T13:03:48;5.47;;;1.93;;
18228;SDS011;9239;50.932;3.142;2024-03-23T13:06:15;3.10;;;1.60;;
18228;SDS011;9239;50.932;3.142;2024-03-23T13:08:42;4.50;;;1.60;;
18228;SDS011;9239;50.932;3.142;2024-03-23T13:11:12;5.37;;;2.30;;
18228;SDS011;9239;50.932;3.142;2024-03-23T13:13:39;5.67;;;1.80;;
18228;SDS011;9239;50.932;3.142;2024-03-23T13:16:07;6.33;;;1.60;;
18228;SDS011;9239;50.932;3.142;2024-03-23T13:18:33;3.27;;;1.50;;
18228;SDS011;9239;50.932;3.142;2024-03-23T13:21:00;5.03;;;2.13;;
18228;SDS011;9239;50.932;3.142;2024-03-23T13:23:27;3.17;;;1.47;;
18228;SDS011;9239;50.932;3.142;2024-03-23T13:25:55;5.37;;;2.40;;
18228;SDS011;9239;50.932;3.142;2024-03-23T13:28:23;4.40;;;2.60;;
18228;SDS011;9239;50.932;3.142;2024-03-23T13:30:50;6.67;;;4.00;;
18228;SDS011;9239;50.932;3.142;2024-03-23T13:33:17;5.93;;;3.23;;
18228;SDS011;9239;50.932;3.142;2024-03-23T13:35:50;4.17;;;2.20;;
18228;SDS011;9239;50.932;3.142;2024-03-23T13:38:16;6.43;;;1.97;;
18228;SDS011;9239;50.932;3.142;2024-03-23T13:40:50;2.63;;;2.43;;
18228;SDS011;9239;50.932;3.142;2024-03-23T13:43:17;6.47;;;2.80;;
18228;SDS011;9239;50.932;3.142;2024-03-23T13:45:46;6.40;;;1.87;;
18228;SDS011;9239;50.932;3.142;2024-03-23T13:48:12;5.17;;;2.30;;
18228;SDS011;9239;50.932;3.142;2024-03-23T13:50:39;7.10;;;2.97;;
18228;SDS011;9239;50.932;3.142;2024-03-23T13:53:05;4.70;;;2.20;;
18228;SDS011;9239;50.932;3.142;2024-03-23T13:55:33;6.30;;;2.50;;
18228;SDS011;9239;50.932;3.142;2024-03-23T13:57:59;3.50;;;1.77;;
18228;SDS011;9239;50.932;3.142;2024-03-23T14:00:26;6.53;;;1.70;;
18228;SDS011;9239;50.932;3.142;2024-03-23T14:02:53;4.57;;;1.77;;
18228;SDS011;9239;50.932;3.142;2024-03-23T14:05:20;5.13;;;1.87;;
18228;SDS011;9239;50.932;3.142;2024-03-23T14:07:46;3.50;;;1.60;;
18228;SDS011;9239;50.932;3.142;2024-03-23T14:10:14;8.97;;;3.33;;
18228;SDS011;9239;50.932;3.142;2024-03-23T14:12:40;5.27;;;1.50;;
18228;SDS011;9239;50.932;3.142;2024-03-23T14:15:07;5.33;;;2.10;;
18228;SDS011;9239;50.932;3.142;2024-03-23T14:17:34;4.77;;;1.47;;
18228;SDS011;9239;50.932;3.142;2024-03-23T14:20:02;8.33;;;1.63;;
18228;SDS011;9239;50.932;3.142;2024-03-23T14:22:30;3.97;;;1.20;;
18228;SDS011;9239;50.932;3.142;2024-03-23T14:24:57;4.10;;;1.57;;
18228;SDS011;9239;50.932;3.142;2024-03-23T14:27:23;2.93;;;1.30;;
18228;SDS011;9239;50.932;3.142;2024-03-23T14:29:50;3.70;;;1.50;;
18228;SDS011;9239;50.932;3.142;2024-03-23T14:32:16;4.13;;;1.40;;
18228;SDS011;9239;50.932;3.142;2024-03-23T14:34:43;2.17;;;1.00;;
18228;SDS011;9239;50.932;3.142;2024-03-23T14:37:11;3.57;;;1.33;;
18228;SDS011;9239;50.932;3.142;2024-03-23T14:39:38;3.07;;;1.33;;
18228;SDS011;9239;50.932;3.142;2024-03-23T14:42:06;5.30;;;1.73;;
18228;SDS011;9239;50.932;3.142;2024-03-23T14:44:33;3.87;;;3.03;;
18228;SDS011;9239;50.932;3.142;2024-03-23T14:46:59;6.57;;;1.83;;
18228;SDS011;9239;50.932;3.142;2024-03-23T14:49:26;3.47;;;1.07;;
18228;SDS011;9239;50.932;3.142;2024-03-23T14:51:52;2.90;;;1.20;;
18228;SDS011;9239;50.932;3.142;2024-03-23T14:54:20;6.60;;;1.40;;
18228;SDS011;9239;50.932;3.142;2024-03-23T14:56:46;2.80;;;1.53;;
18228;SDS011;9239;50.932;3.142;2024-03-23T14:59:13;2.97;;;1.40;;
18228;SDS011;9239;50.932;3.142;2024-03-23T15:01:39;5.00;;;1.50;;
18228;SDS011;9239;50.932;3.142;2024-03-23T15:04:07;2.40;;;1.10;;
18228;SDS011;9239;50.932;3.142;2024-03-23T15:06:33;4.23;;;1.50;;
18228;SDS011;9239;50.932;3.142;2024-03-23T15:09:01;4.37;;;1.50;;
18228;SDS011;9239;50.932;3.142;2024-03-23T15:11:33;5.07;;;1.40;;
18228;SDS011;9239;50.932;3.142;2024-03-23T15:14:00;3.83;;;1.70;;
18228;SDS011;9239;50.932;3.142;2024-03-23T15:16:27;5.53;;;1.80;;
18228;SDS011;9239;50.932;3.142;2024-03-23T15:18:53;3.17;;;1.67;;
18228;SDS011;9239;50.932;3.142;2024-03-23T15:21:20;4.93;;;1.90;;
18228;SDS011;9239;50.932;3.142;2024-03-23T15:23:46;6.97;;;1.90;;
18228;SDS011;9239;50.932;3.142;2024-03-23T15:26:13;3.90;;;1.43;;
18228;SDS011;9239;50.932;3.142;2024-03-23T15:28:42;6.93;;;2.70;;
18228;SDS011;9239;50.932;3.142;2024-03-23T15:31:29;4.27;;;2.00;;
18228;SDS011;9239;50.932;3.142;2024-03-23T15:33:55;4.43;;;1.83;;
18228;SDS011;9239;50.932;3.142;2024-03-23T15:36:22;6.83;;;1.67;;
18228;SDS011;9239;50.932;3.142;2024-03-23T15:38:48;7.07;;;1.97;;
18228;SDS011;9239;50.932;3.142;2024-03-23T15:41:15;5.37;;;1.80;;
18228;SDS011;9239;50.932;3.142;2024-03-23T15:43:42;4.97;;;2.10;;
18228;SDS011;9239;50.932;3.142;2024-03-23T15:46:09;6.23;;;2.30;;
18228;SDS011;9239;50.932;3.142;2024-03-23T15:48:36;4.50;;;1.50;;
18228;SDS011;9239;50.932;3.142;2024-03-23T15:51:03;4.70;;;1.70;;
18228;SDS011;9239;50.932;3.142;2024-03-23T15:53:29;6.53;;;2.10;;
18228;SDS011;9239;50.932;3.142;2024-03-23T15:55:57;6.60;;;3.37;;